sensor_id;sensor_type;location;lat;lon;timestamp;P1;durP1;ratioP1;P2;durP2;ratioP2
73850;SDS011;62190;51.548;5.688;2023-04-30T00:00:02;19.98;;;11.68;;
73850;SDS011;62190;51.548;5.688;2023-04-30T00:02:31;21.82;;;11.45;;
73850;SDS011;62190;51.548;5.688;2023-04-30T00:04:58;21.97;;;11.83;;
73850;SDS011;62190;51.548;5.688;2023-04-30T00:07:26;18.57;;;10.70;;
73850;SDS011;62190;51.548;5.688;2023-04-30T00:09:53;19.00;;;11.75;;
73850;SDS011;62190;51.548;5.688;2023-04-30T00:12:22;21.10;;;11.57;;
73850;SDS011;62190;51.548;5.688;2023-04-30T00:14:50;19.23;;;12.00;;
73850;SDS011;62190;51.548;5.688;2023-04-30T00:17:20;23.45;;;12.15;;
73850;SDS011;62190;51.548;5.688;2023-04-30T00:19:48;18.27;;;11.57;;
73850;SDS011;62190;51.548;5.688;2023-04-30T00:22:16;22.65;;;13.25;;
73850;SDS011;62190;51.548;5.688;2023-04-30T00:24:43;22.42;;;12.23;;
73850;SDS011;62190;51.548;5.688;2023-04-30T00:27:11;24.10;;;13.83;;
73850;SDS011;62190;51.548;5.688;2023-04-30T00:29:38;21.93;;;12.82;;
73850;SDS011;62190;51.548;5.688;2023-04-30T00:32:09;20.95;;;12.30;;
73850;SDS011;62190;51.548;5.688;2023-04-30T00:34:37;22.02;;;13.13;;
73850;SDS011;62190;51.548;5.688;2023-04-30T00:37:06;23.92;;;13.95;;
73850;SDS011;62190;51.548;5.688;2023-04-30T00:39:33;22.67;;;13.05;;
73850;SDS011;62190;51.548;5.688;2023-04-30T00:42:01;24.98;;;13.95;;
73850;SDS011;62190;51.548;5.688;2023-04-30T00:44:28;24.60;;;13.98;;
73850;SDS011;62190;51.548;5.688;2023-04-30T00:46:56;23.87;;;13.38;;
73850;SDS011;62190;51.548;5.688;2023-04-30T00:49:25;24.57;;;14.10;;
73850;SDS011;62190;51.548;5.688;2023-04-30T00:51:52;22.90;;;14.30;;
73850;SDS011;62190;51.548;5.688;2023-04-30T00:54:21;22.60;;;13.55;;
73850;SDS011;62190;51.548;5.688;2023-04-30T00:56:52;22.25;;;14.20;;
73850;SDS011;62190;51.548;5.688;2023-04-30T00:59:19;24.05;;;14.15;;
73850;SDS011;62190;51.548;5.688;2023-04-30T01:01:47;23.67;;;14.55;;
73850;SDS011;62190;51.548;5.688;2023-04-30T01:04:14;30.12;;;15.15;;
73850;SDS011;62190;51.548;5.688;2023-04-30T01:06:42;20.37;;;11.90;;
73850;SDS011;62190;51.548;5.688;2023-04-30T01:09:11;20.45;;;11.90;;
73850;SDS011;62190;51.548;5.688;2023-04-30T01:11:47;28.90;;;15.90;;
73850;SDS011;62190;51.548;5.688;2023-04-30T01:14:27;24.07;;;13.95;;
73850;SDS011;62190;51.548;5.688;2023-04-30T01:16:57;25.23;;;14.20;;
73850;SDS011;62190;51.548;5.688;2023-04-30T01:19:40;29.70;;;15.88;;
73850;SDS011;62190;51.548;5.688;2023-04-30T01:22:11;41.83;;;19.52;;
73850;SDS011;62190;51.548;5.688;2023-04-30T01:24:48;37.15;;;18.95;;
73850;SDS011;62190;51.548;5.688;2023-04-30T01:30:01;35.75;;;18.25;;
73850;SDS011;62190;51.548;5.688;2023-04-30T01:32:30;33.40;;;18.25;;
73850;SDS011;62190;51.548;5.688;2023-04-30T01:34:58;34.05;;;18.10;;
73850;SDS011;62190;51.548;5.688;2023-04-30T01:42:46;31.77;;;17.98;;
73850;SDS011;62190;51.548;5.688;2023-04-30T01:50:48;36.77;;;18.87;;
73850;SDS011;62190;51.548;5.688;2023-04-30T01:53:22;33.95;;;19.23;;
73850;SDS011;62190;51.548;5.688;2023-04-30T01:55:50;33.05;;;17.80;;
73850;SDS011;62190;51.548;5.688;2023-04-30T01:58:23;33.58;;;18.80;;
73850;SDS011;62190;51.548;5.688;2023-04-30T02:00:51;30.92;;;17.85;;
73850;SDS011;62190;51.548;5.688;2023-04-30T02:03:18;27.67;;;17.65;;
73850;SDS011;62190;51.548;5.688;2023-04-30T02:05:46;28.17;;;17.20;;
73850;SDS011;62190;51.548;5.688;2023-04-30T02:08:13;25.88;;;16.67;;
73850;SDS011;62190;51.548;5.688;2023-04-30T02:10:41;37.25;;;18.07;;
73850;SDS011;62190;51.548;5.688;2023-04-30T02:13:08;30.95;;;18.70;;
73850;SDS011;62190;51.548;5.688;2023-04-30T02:15:35;28.83;;;16.57;;
73850;SDS011;62190;51.548;5.688;2023-04-30T02:18:04;32.00;;;18.52;;
73850;SDS011;62190;51.548;5.688;2023-04-30T02:20:33;29.80;;;17.55;;
73850;SDS011;62190;51.548;5.688;2023-04-30T02:23:00;31.37;;;17.77;;
73850;SDS011;62190;51.548;5.688;2023-04-30T02:25:29;31.30;;;19.42;;
73850;SDS011;62190;51.548;5.688;2023-04-30T02:28:00;33.63;;;17.20;;
73850;SDS011;62190;51.548;5.688;2023-04-30T02:30:28;37.10;;;20.50;;
73850;SDS011;62190;51.548;5.688;2023-04-30T02:32:57;33.78;;;19.17;;
73850;SDS011;62190;51.548;5.688;2023-04-30T02:35:24;36.93;;;19.07;;
73850;SDS011;62190;51.548;5.688;2023-04-30T02:37:53;34.20;;;18.80;;
73850;SDS011;62190;51.548;5.688;2023-04-30T02:40:22;33.88;;;18.02;;
73850;SDS011;62190;51.548;5.688;2023-04-30T02:42:51;34.15;;;18.90;;
73850;SDS011;62190;51.548;5.688;2023-04-30T02:45:19;36.68;;;19.73;;
73850;SDS011;62190;51.548;5.688;2023-04-30T02:47:48;33.58;;;19.05;;
73850;SDS011;62190;51.548;5.688;2023-04-30T02:50:15;32.88;;;19.40;;
73850;SDS011;62190;51.548;5.688;2023-04-30T02:52:44;35.85;;;19.02;;
73850;SDS011;62190;51.548;5.688;2023-04-30T02:55:12;37.45;;;20.48;;
73850;SDS011;62190;51.548;5.688;2023-04-30T02:57:39;34.10;;;20.10;;
73850;SDS011;62190;51.548;5.688;2023-04-30T03:00:09;33.45;;;18.57;;
73850;SDS011;62190;51.548;5.688;2023-04-30T03:02:37;34.85;;;18.12;;
73850;SDS011;62190;51.548;5.688;2023-04-30T03:05:05;32.42;;;17.82;;
73850;SDS011;62190;51.548;5.688;2023-04-30T03:07:33;29.67;;;17.27;;
73850;SDS011;62190;51.548;5.688;2023-04-30T03:10:00;35.40;;;18.75;;
73850;SDS011;62190;51.548;5.688;2023-04-30T03:12:27;31.05;;;17.65;;
73850;SDS011;62190;51.548;5.688;2023-04-30T03:14:57;29.77;;;17.23;;
73850;SDS011;62190;51.548;5.688;2023-04-30T03:17:23;27.10;;;15.32;;
73850;SDS011;62190;51.548;5.688;2023-04-30T03:19:51;26.17;;;15.58;;
73850;SDS011;62190;51.548;5.688;2023-04-30T03:22:18;31.17;;;15.78;;
73850;SDS011;62190;51.548;5.688;2023-04-30T03:24:47;34.98;;;17.02;;
73850;SDS011;62190;51.548;5.688;2023-04-30T03:27:14;30.90;;;17.37;;
73850;SDS011;62190;51.548;5.688;2023-04-30T03:29:41;27.62;;;16.40;;
73850;SDS011;62190;51.548;5.688;2023-04-30T03:32:09;45.55;;;23.87;;
73850;SDS011;62190;51.548;5.688;2023-04-30T03:34:36;51.60;;;24.45;;
73850;SDS011;62190;51.548;5.688;2023-04-30T03:37:04;53.33;;;26.70;;
73850;SDS011;62190;51.548;5.688;2023-04-30T03:39:31;60.00;;;28.52;;
73850;SDS011;62190;51.548;5.688;2023-04-30T03:41:58;56.25;;;28.77;;
73850;SDS011;62190;51.548;5.688;2023-04-30T03:44:27;56.13;;;28.25;;
73850;SDS011;62190;51.548;5.688;2023-04-30T03:46:55;59.98;;;30.77;;
73850;SDS011;62190;51.548;5.688;2023-04-30T03:49:22;65.52;;;30.77;;
73850;SDS011;62190;51.548;5.688;2023-04-30T03:51:49;65.60;;;32.65;;
73850;SDS011;62190;51.548;5.688;2023-04-30T03:54:17;56.98;;;31.05;;
73850;SDS011;62190;51.548;5.688;2023-04-30T03:56:44;57.30;;;30.25;;
73850;SDS011;62190;51.548;5.688;2023-04-30T03:59:11;61.08;;;31.30;;
73850;SDS011;62190;51.548;5.688;2023-04-30T04:01:38;61.20;;;31.02;;
73850;SDS011;62190;51.548;5.688;2023-04-30T04:04:06;58.68;;;30.05;;
73850;SDS011;62190;51.548;5.688;2023-04-30T04:06:34;54.83;;;30.52;;
73850;SDS011;62190;51.548;5.688;2023-04-30T04:09:02;64.95;;;30.97;;
73850;SDS011;62190;51.548;5.688;2023-04-30T04:11:30;56.15;;;29.25;;
73850;SDS011;62190;51.548;5.688;2023-04-30T04:13:58;55.20;;;30.17;;
73850;SDS011;62190;51.548;5.688;2023-04-30T04:16:26;58.48;;;29.10;;
73850;SDS011;62190;51.548;5.688;2023-04-30T04:18:53;50.48;;;27.75;;
73850;SDS011;62190;51.548;5.688;2023-04-30T04:21:20;55.63;;;30.12;;
73850;SDS011;62190;51.548;5.688;2023-04-30T04:23:48;53.13;;;27.87;;
73850;SDS011;62190;51.548;5.688;2023-04-30T04:26:15;47.62;;;27.87;;
73850;SDS011;62190;51.548;5.688;2023-04-30T04:28:44;54.90;;;28.62;;
73850;SDS011;62190;51.548;5.688;2023-04-30T04:31:12;49.00;;;26.90;;
73850;SDS011;62190;51.548;5.688;2023-04-30T04:33:40;47.58;;;25.52;;
73850;SDS011;62190;51.548;5.688;2023-04-30T04:36:07;49.65;;;26.48;;
73850;SDS011;62190;51.548;5.688;2023-04-30T04:38:34;52.15;;;25.77;;
73850;SDS011;62190;51.548;5.688;2023-04-30T04:41:02;52.03;;;25.75;;
73850;SDS011;62190;51.548;5.688;2023-04-30T04:43:29;43.78;;;25.60;;
73850;SDS011;62190;51.548;5.688;2023-04-30T04:45:56;53.23;;;28.42;;
73850;SDS011;62190;51.548;5.688;2023-04-30T04:48:24;45.48;;;24.30;;
73850;SDS011;62190;51.548;5.688;2023-04-30T04:50:53;47.78;;;25.43;;
73850;SDS011;62190;51.548;5.688;2023-04-30T04:53:20;49.90;;;26.33;;
73850;SDS011;62190;51.548;5.688;2023-04-30T04:55:48;52.93;;;28.38;;
73850;SDS011;62190;51.548;5.688;2023-04-30T04:58:15;45.23;;;25.50;;
73850;SDS011;62190;51.548;5.688;2023-04-30T05:00:43;48.55;;;27.25;;
73850;SDS011;62190;51.548;5.688;2023-04-30T05:03:10;46.90;;;26.65;;
73850;SDS011;62190;51.548;5.688;2023-04-30T05:05:38;43.00;;;24.92;;
73850;SDS011;62190;51.548;5.688;2023-04-30T05:08:06;39.30;;;25.43;;
73850;SDS011;62190;51.548;5.688;2023-04-30T05:10:33;37.67;;;23.18;;
73850;SDS011;62190;51.548;5.688;2023-04-30T05:13:00;30.57;;;20.92;;
73850;SDS011;62190;51.548;5.688;2023-04-30T05:15:28;24.63;;;17.60;;
73850;SDS011;62190;51.548;5.688;2023-04-30T05:17:55;24.05;;;15.68;;
73850;SDS011;62190;51.548;5.688;2023-04-30T05:20:22;19.42;;;12.30;;
73850;SDS011;62190;51.548;5.688;2023-04-30T05:22:50;19.17;;;12.45;;
73850;SDS011;62190;51.548;5.688;2023-04-30T05:25:17;14.05;;;10.25;;
73850;SDS011;62190;51.548;5.688;2023-04-30T05:27:44;16.35;;;11.05;;
73850;SDS011;62190;51.548;5.688;2023-04-30T05:30:12;16.97;;;12.10;;
73850;SDS011;62190;51.548;5.688;2023-04-30T05:32:41;15.40;;;11.08;;
73850;SDS011;62190;51.548;5.688;2023-04-30T05:35:10;14.40;;;10.28;;
73850;SDS011;62190;51.548;5.688;2023-04-30T05:37:37;14.35;;;9.90;;
73850;SDS011;62190;51.548;5.688;2023-04-30T05:40:05;16.70;;;11.30;;
73850;SDS011;62190;51.548;5.688;2023-04-30T05:42:33;13.40;;;10.85;;
73850;SDS011;62190;51.548;5.688;2023-04-30T05:45:01;14.83;;;9.73;;
73850;SDS011;62190;51.548;5.688;2023-04-30T05:47:29;13.93;;;10.40;;
73850;SDS011;62190;51.548;5.688;2023-04-30T05:49:56;14.85;;;10.95;;
73850;SDS011;62190;51.548;5.688;2023-04-30T05:52:23;14.28;;;9.00;;
73850;SDS011;62190;51.548;5.688;2023-04-30T05:54:50;13.90;;;9.98;;
73850;SDS011;62190;51.548;5.688;2023-04-30T05:57:18;13.55;;;10.75;;
73850;SDS011;62190;51.548;5.688;2023-04-30T05:59:45;16.93;;;10.35;;
73850;SDS011;62190;51.548;5.688;2023-04-30T06:02:13;14.43;;;10.55;;
73850;SDS011;62190;51.548;5.688;2023-04-30T06:04:40;14.43;;;10.45;;
73850;SDS011;62190;51.548;5.688;2023-04-30T06:07:08;13.60;;;9.55;;
73850;SDS011;62190;51.548;5.688;2023-04-30T06:09:35;12.55;;;8.53;;
73850;SDS011;62190;51.548;5.688;2023-04-30T06:12:02;10.00;;;7.78;;
73850;SDS011;62190;51.548;5.688;2023-04-30T06:14:30;10.68;;;8.60;;
73850;SDS011;62190;51.548;5.688;2023-04-30T06:16:57;10.10;;;6.62;;
73850;SDS011;62190;51.548;5.688;2023-04-30T06:19:25;10.75;;;7.37;;
73850;SDS011;62190;51.548;5.688;2023-04-30T06:21:52;10.85;;;7.83;;
73850;SDS011;62190;51.548;5.688;2023-04-30T06:24:19;10.08;;;7.00;;
73850;SDS011;62190;51.548;5.688;2023-04-30T06:26:47;9.15;;;7.20;;
73850;SDS011;62190;51.548;5.688;2023-04-30T06:29:14;10.18;;;6.78;;
73850;SDS011;62190;51.548;5.688;2023-04-30T06:31:41;10.55;;;6.62;;
73850;SDS011;62190;51.548;5.688;2023-04-30T06:34:08;10.32;;;6.83;;
73850;SDS011;62190;51.548;5.688;2023-04-30T06:36:36;8.95;;;6.67;;
73850;SDS011;62190;51.548;5.688;2023-04-30T06:39:03;9.18;;;6.42;;
73850;SDS011;62190;51.548;5.688;2023-04-30T06:41:31;11.35;;;6.47;;
73850;SDS011;62190;51.548;5.688;2023-04-30T06:43:58;10.55;;;6.35;;
73850;SDS011;62190;51.548;5.688;2023-04-30T06:46:25;10.30;;;7.28;;
73850;SDS011;62190;51.548;5.688;2023-04-30T06:48:52;9.13;;;6.50;;
73850;SDS011;62190;51.548;5.688;2023-04-30T06:51:21;9.78;;;7.00;;
73850;SDS011;62190;51.548;5.688;2023-04-30T06:53:49;14.85;;;8.05;;
73850;SDS011;62190;51.548;5.688;2023-04-30T06:56:16;9.00;;;6.78;;
73850;SDS011;62190;51.548;5.688;2023-04-30T06:58:43;9.65;;;6.58;;
73850;SDS011;62190;51.548;5.688;2023-04-30T07:01:10;8.18;;;6.22;;
73850;SDS011;62190;51.548;5.688;2023-04-30T07:03:38;8.25;;;6.10;;
73850;SDS011;62190;51.548;5.688;2023-04-30T07:06:05;8.50;;;6.85;;
73850;SDS011;62190;51.548;5.688;2023-04-30T07:08:32;11.15;;;6.58;;
73850;SDS011;62190;51.548;5.688;2023-04-30T07:11:00;9.45;;;6.75;;
73850;SDS011;62190;51.548;5.688;2023-04-30T07:13:27;8.03;;;5.83;;
73850;SDS011;62190;51.548;5.688;2023-04-30T07:15:54;8.45;;;6.25;;
73850;SDS011;62190;51.548;5.688;2023-04-30T07:18:23;10.55;;;6.87;;
73850;SDS011;62190;51.548;5.688;2023-04-30T07:20:52;7.45;;;6.15;;
73850;SDS011;62190;51.548;5.688;2023-04-30T07:23:20;9.23;;;6.25;;
73850;SDS011;62190;51.548;5.688;2023-04-30T07:25:47;9.38;;;6.60;;
73850;SDS011;62190;51.548;5.688;2023-04-30T07:28:14;8.45;;;6.28;;
73850;SDS011;62190;51.548;5.688;2023-04-30T07:30:42;9.90;;;6.50;;
73850;SDS011;62190;51.548;5.688;2023-04-30T07:33:11;9.28;;;6.40;;
73850;SDS011;62190;51.548;5.688;2023-04-30T07:35:38;10.05;;;6.47;;
73850;SDS011;62190;51.548;5.688;2023-04-30T07:38:07;9.08;;;7.00;;
73850;SDS011;62190;51.548;5.688;2023-04-30T07:40:35;10.55;;;6.08;;
73850;SDS011;62190;51.548;5.688;2023-04-30T07:43:02;8.25;;;6.30;;
73850;SDS011;62190;51.548;5.688;2023-04-30T07:45:29;7.70;;;6.12;;
73850;SDS011;62190;51.548;5.688;2023-04-30T07:47:58;11.73;;;7.30;;
73850;SDS011;62190;51.548;5.688;2023-04-30T07:50:25;10.05;;;6.90;;
73850;SDS011;62190;51.548;5.688;2023-04-30T07:52:54;9.98;;;6.83;;
73850;SDS011;62190;51.548;5.688;2023-04-30T07:55:21;10.68;;;6.87;;
73850;SDS011;62190;51.548;5.688;2023-04-30T07:57:49;10.72;;;6.70;;
73850;SDS011;62190;51.548;5.688;2023-04-30T08:00:16;10.30;;;6.60;;
73850;SDS011;62190;51.548;5.688;2023-04-30T08:02:43;10.68;;;6.78;;
73850;SDS011;62190;51.548;5.688;2023-04-30T08:05:12;7.83;;;6.00;;
73850;SDS011;62190;51.548;5.688;2023-04-30T08:07:40;9.03;;;6.33;;
73850;SDS011;62190;51.548;5.688;2023-04-30T08:10:08;11.33;;;7.10;;
73850;SDS011;62190;51.548;5.688;2023-04-30T08:12:36;10.23;;;7.35;;
73850;SDS011;62190;51.548;5.688;2023-04-30T08:15:03;10.45;;;6.33;;
73850;SDS011;62190;51.548;5.688;2023-04-30T08:17:35;9.03;;;6.92;;
73850;SDS011;62190;51.548;5.688;2023-04-30T08:20:03;8.55;;;6.70;;
73850;SDS011;62190;51.548;5.688;2023-04-30T08:22:31;7.72;;;6.25;;
73850;SDS011;62190;51.548;5.688;2023-04-30T08:24:58;9.15;;;6.47;;
73850;SDS011;62190;51.548;5.688;2023-04-30T08:27:26;8.10;;;6.40;;
73850;SDS011;62190;51.548;5.688;2023-04-30T08:29:55;8.20;;;6.30;;
73850;SDS011;62190;51.548;5.688;2023-04-30T08:32:23;10.93;;;6.47;;
73850;SDS011;62190;51.548;5.688;2023-04-30T08:34:50;9.53;;;7.10;;
73850;SDS011;62190;51.548;5.688;2023-04-30T08:37:18;10.25;;;6.65;;
73850;SDS011;62190;51.548;5.688;2023-04-30T08:39:45;10.93;;;6.62;;
73850;SDS011;62190;51.548;5.688;2023-04-30T08:42:12;9.75;;;6.10;;
73850;SDS011;62190;51.548;5.688;2023-04-30T08:44:40;9.58;;;6.90;;
73850;SDS011;62190;51.548;5.688;2023-04-30T08:47:09;8.63;;;6.05;;
73850;SDS011;62190;51.548;5.688;2023-04-30T08:49:39;8.63;;;6.35;;
73850;SDS011;62190;51.548;5.688;2023-04-30T08:52:06;7.67;;;5.53;;
73850;SDS011;62190;51.548;5.688;2023-04-30T08:54:34;10.05;;;6.28;;
73850;SDS011;62190;51.548;5.688;2023-04-30T08:57:02;8.30;;;5.87;;
73850;SDS011;62190;51.548;5.688;2023-04-30T08:59:30;10.53;;;6.20;;
73850;SDS011;62190;51.548;5.688;2023-04-30T09:01:59;7.85;;;5.78;;
73850;SDS011;62190;51.548;5.688;2023-04-30T09:04:27;7.22;;;5.35;;
73850;SDS011;62190;51.548;5.688;2023-04-30T09:06:54;7.28;;;5.85;;
73850;SDS011;62190;51.548;5.688;2023-04-30T09:09:27;9.88;;;6.17;;
73850;SDS011;62190;51.548;5.688;2023-04-30T09:12:16;6.83;;;5.60;;
73850;SDS011;62190;51.548;5.688;2023-04-30T09:14:38;6.97;;;5.60;;
73850;SDS011;62190;51.548;5.688;2023-04-30T09:17:06;7.50;;;5.25;;
73850;SDS011;62190;51.548;5.688;2023-04-30T09:19:34;6.22;;;5.42;;
73850;SDS011;62190;51.548;5.688;2023-04-30T09:22:23;6.90;;;5.90;;
73850;SDS011;62190;51.548;5.688;2023-04-30T09:24:47;8.85;;;5.90;;
73850;SDS011;62190;51.548;5.688;2023-04-30T09:27:35;6.72;;;5.35;;
73850;SDS011;62190;51.548;5.688;2023-04-30T09:30:03;8.98;;;6.12;;
73850;SDS011;62190;51.548;5.688;2023-04-30T09:32:32;7.58;;;5.20;;
73850;SDS011;62190;51.548;5.688;2023-04-30T09:34:59;8.33;;;5.03;;
73850;SDS011;62190;51.548;5.688;2023-04-30T09:37:36;8.23;;;5.92;;
73850;SDS011;62190;51.548;5.688;2023-04-30T09:40:03;7.87;;;5.37;;
73850;SDS011;62190;51.548;5.688;2023-04-30T09:42:31;7.90;;;5.78;;
73850;SDS011;62190;51.548;5.688;2023-04-30T09:44:59;8.70;;;5.65;;
73850;SDS011;62190;51.548;5.688;2023-04-30T09:47:28;6.45;;;5.33;;
73850;SDS011;62190;51.548;5.688;2023-04-30T09:49:57;7.70;;;5.37;;
73850;SDS011;62190;51.548;5.688;2023-04-30T09:52:25;7.37;;;5.62;;
73850;SDS011;62190;51.548;5.688;2023-04-30T09:54:52;6.22;;;4.70;;
73850;SDS011;62190;51.548;5.688;2023-04-30T09:57:21;7.28;;;5.10;;
73850;SDS011;62190;51.548;5.688;2023-04-30T09:59:49;6.58;;;5.33;;
73850;SDS011;62190;51.548;5.688;2023-04-30T10:02:18;7.67;;;5.53;;
73850;SDS011;62190;51.548;5.688;2023-04-30T10:04:48;7.45;;;5.53;;
73850;SDS011;62190;51.548;5.688;2023-04-30T10:07:20;6.65;;;5.65;;
73850;SDS011;62190;51.548;5.688;2023-04-30T10:09:49;6.80;;;4.28;;
73850;SDS011;62190;51.548;5.688;2023-04-30T10:12:23;6.03;;;4.90;;
73850;SDS011;62190;51.548;5.688;2023-04-30T10:14:51;8.25;;;4.20;;
73850;SDS011;62190;51.548;5.688;2023-04-30T10:17:17;5.05;;;2.80;;
73850;SDS011;62190;51.548;5.688;2023-04-30T10:19:47;6.80;;;3.55;;
73850;SDS011;62190;51.548;5.688;2023-04-30T10:22:15;6.53;;;3.90;;
73850;SDS011;62190;51.548;5.688;2023-04-30T10:24:42;5.40;;;3.90;;
73850;SDS011;62190;51.548;5.688;2023-04-30T10:27:11;6.42;;;4.03;;
73850;SDS011;62190;51.548;5.688;2023-04-30T10:29:39;4.97;;;3.40;;
73850;SDS011;62190;51.548;5.688;2023-04-30T10:32:06;4.65;;;3.90;;
73850;SDS011;62190;51.548;5.688;2023-04-30T10:34:54;5.47;;;4.83;;
73850;SDS011;62190;51.548;5.688;2023-04-30T10:37:54;6.15;;;4.92;;
73850;SDS011;62190;51.548;5.688;2023-04-30T10:40:26;4.67;;;3.98;;
73850;SDS011;62190;51.548;5.688;2023-04-30T10:42:54;4.92;;;3.67;;
73850;SDS011;62190;51.548;5.688;2023-04-30T10:45:34;4.83;;;3.83;;
73850;SDS011;62190;51.548;5.688;2023-04-30T10:48:04;4.62;;;3.42;;
73850;SDS011;62190;51.548;5.688;2023-04-30T10:50:32;3.98;;;3.22;;
73850;SDS011;62190;51.548;5.688;2023-04-30T10:53:08;4.92;;;3.85;;
73850;SDS011;62190;51.548;5.688;2023-04-30T10:55:57;5.12;;;3.75;;
73850;SDS011;62190;51.548;5.688;2023-04-30T10:58:36;5.50;;;3.72;;
73850;SDS011;62190;51.548;5.688;2023-04-30T11:01:08;4.83;;;3.60;;
73850;SDS011;62190;51.548;5.688;2023-04-30T11:03:39;5.25;;;3.50;;
73850;SDS011;62190;51.548;5.688;2023-04-30T11:06:11;4.67;;;3.72;;
73850;SDS011;62190;51.548;5.688;2023-04-30T11:08:42;5.22;;;3.33;;
73850;SDS011;62190;51.548;5.688;2023-04-30T11:11:10;5.37;;;2.95;;
73850;SDS011;62190;51.548;5.688;2023-04-30T11:13:46;5.42;;;3.70;;
73850;SDS011;62190;51.548;5.688;2023-04-30T11:16:17;6.17;;;4.05;;
73850;SDS011;62190;51.548;5.688;2023-04-30T11:18:45;4.53;;;3.67;;
73850;SDS011;62190;51.548;5.688;2023-04-30T11:21:12;5.10;;;3.45;;
73850;SDS011;62190;51.548;5.688;2023-04-30T11:23:40;5.37;;;3.12;;
73850;SDS011;62190;51.548;5.688;2023-04-30T11:26:08;5.70;;;4.05;;
73850;SDS011;62190;51.548;5.688;2023-04-30T11:28:36;4.65;;;3.95;;
73850;SDS011;62190;51.548;5.688;2023-04-30T11:31:04;5.35;;;3.77;;
73850;SDS011;62190;51.548;5.688;2023-04-30T11:33:32;6.12;;;3.65;;
73850;SDS011;62190;51.548;5.688;2023-04-30T11:36:00;4.42;;;3.08;;
73850;SDS011;62190;51.548;5.688;2023-04-30T11:38:30;6.25;;;3.20;;
73850;SDS011;62190;51.548;5.688;2023-04-30T11:40:59;5.62;;;4.22;;
73850;SDS011;62190;51.548;5.688;2023-04-30T11:43:28;4.22;;;3.60;;
73850;SDS011;62190;51.548;5.688;2023-04-30T11:48:35;5.03;;;3.80;;
73850;SDS011;62190;51.548;5.688;2023-04-30T11:51:25;3.92;;;2.92;;
73850;SDS011;62190;51.548;5.688;2023-04-30T11:53:51;3.85;;;3.22;;
73850;SDS011;62190;51.548;5.688;2023-04-30T11:56:20;3.75;;;2.60;;
73850;SDS011;62190;51.548;5.688;2023-04-30T11:58:53;4.85;;;2.52;;
73850;SDS011;62190;51.548;5.688;2023-04-30T12:01:20;3.87;;;2.80;;
73850;SDS011;62190;51.548;5.688;2023-04-30T12:03:48;2.47;;;2.15;;
73850;SDS011;62190;51.548;5.688;2023-04-30T12:06:21;3.72;;;2.30;;
73850;SDS011;62190;51.548;5.688;2023-04-30T12:08:51;4.05;;;3.30;;
73850;SDS011;62190;51.548;5.688;2023-04-30T12:11:22;5.35;;;3.00;;
73850;SDS011;62190;51.548;5.688;2023-04-30T12:13:51;4.60;;;3.27;;
73850;SDS011;62190;51.548;5.688;2023-04-30T12:19:15;3.62;;;2.72;;
73850;SDS011;62190;51.548;5.688;2023-04-30T12:21:44;3.15;;;2.20;;
73850;SDS011;62190;51.548;5.688;2023-04-30T12:24:13;3.42;;;2.58;;
73850;SDS011;62190;51.548;5.688;2023-04-30T12:26:42;5.15;;;2.67;;
73850;SDS011;62190;51.548;5.688;2023-04-30T12:29:17;4.33;;;2.98;;
73850;SDS011;62190;51.548;5.688;2023-04-30T12:31:47;5.15;;;3.40;;
73850;SDS011;62190;51.548;5.688;2023-04-30T12:34:16;5.20;;;2.83;;
73850;SDS011;62190;51.548;5.688;2023-04-30T12:36:43;4.75;;;2.77;;
73850;SDS011;62190;51.548;5.688;2023-04-30T12:39:11;4.37;;;2.75;;
73850;SDS011;62190;51.548;5.688;2023-04-30T12:41:43;4.20;;;2.92;;
73850;SDS011;62190;51.548;5.688;2023-04-30T12:44:21;3.05;;;2.45;;
73850;SDS011;62190;51.548;5.688;2023-04-30T12:46:52;4.75;;;3.10;;
73850;SDS011;62190;51.548;5.688;2023-04-30T12:49:28;3.00;;;2.40;;
73850;SDS011;62190;51.548;5.688;2023-04-30T12:51:58;4.10;;;2.70;;
73850;SDS011;62190;51.548;5.688;2023-04-30T12:54:27;4.45;;;3.10;;
73850;SDS011;62190;51.548;5.688;2023-04-30T12:56:58;3.85;;;2.58;;
73850;SDS011;62190;51.548;5.688;2023-04-30T12:59:34;4.37;;;3.25;;
73850;SDS011;62190;51.548;5.688;2023-04-30T13:02:10;3.72;;;2.70;;
73850;SDS011;62190;51.548;5.688;2023-04-30T13:04:40;4.67;;;2.90;;
73850;SDS011;62190;51.548;5.688;2023-04-30T13:07:07;3.98;;;2.47;;
73850;SDS011;62190;51.548;5.688;2023-04-30T13:09:35;3.47;;;2.50;;
73850;SDS011;62190;51.548;5.688;2023-04-30T13:12:03;3.52;;;2.30;;
73850;SDS011;62190;51.548;5.688;2023-04-30T13:14:31;4.40;;;2.70;;
73850;SDS011;62190;51.548;5.688;2023-04-30T13:16:58;4.40;;;2.50;;
73850;SDS011;62190;51.548;5.688;2023-04-30T13:19:27;4.35;;;2.65;;
73850;SDS011;62190;51.548;5.688;2023-04-30T13:21:54;2.77;;;2.22;;
73850;SDS011;62190;51.548;5.688;2023-04-30T13:24:23;5.15;;;2.60;;
73850;SDS011;62190;51.548;5.688;2023-04-30T13:26:50;3.90;;;2.25;;
73850;SDS011;62190;51.548;5.688;2023-04-30T13:29:18;3.40;;;2.05;;
73850;SDS011;62190;51.548;5.688;2023-04-30T13:31:48;3.58;;;2.35;;
73850;SDS011;62190;51.548;5.688;2023-04-30T13:34:15;4.12;;;3.22;;
73850;SDS011;62190;51.548;5.688;2023-04-30T13:36:42;4.47;;;2.27;;
73850;SDS011;62190;51.548;5.688;2023-04-30T13:39:11;3.35;;;2.55;;
73850;SDS011;62190;51.548;5.688;2023-04-30T13:41:38;3.25;;;2.40;;
73850;SDS011;62190;51.548;5.688;2023-04-30T13:44:05;3.20;;;2.55;;
73850;SDS011;62190;51.548;5.688;2023-04-30T13:46:33;5.62;;;2.40;;
73850;SDS011;62190;51.548;5.688;2023-04-30T13:49:00;3.52;;;2.00;;
73850;SDS011;62190;51.548;5.688;2023-04-30T13:51:28;4.72;;;2.40;;
73850;SDS011;62190;51.548;5.688;2023-04-30T13:53:56;3.42;;;2.05;;
73850;SDS011;62190;51.548;5.688;2023-04-30T13:56:23;2.92;;;1.70;;
73850;SDS011;62190;51.548;5.688;2023-04-30T13:58:50;2.35;;;1.82;;
73850;SDS011;62190;51.548;5.688;2023-04-30T14:01:18;2.98;;;2.00;;
73850;SDS011;62190;51.548;5.688;2023-04-30T14:03:45;4.92;;;2.50;;
73850;SDS011;62190;51.548;5.688;2023-04-30T14:06:12;3.05;;;2.33;;
73850;SDS011;62190;51.548;5.688;2023-04-30T14:08:39;3.67;;;1.92;;
73850;SDS011;62190;51.548;5.688;2023-04-30T14:11:07;3.27;;;1.92;;
73850;SDS011;62190;51.548;5.688;2023-04-30T14:13:34;3.37;;;2.05;;
73850;SDS011;62190;51.548;5.688;2023-04-30T14:16:01;3.62;;;2.35;;
73850;SDS011;62190;51.548;5.688;2023-04-30T14:18:29;3.98;;;1.90;;
73850;SDS011;62190;51.548;5.688;2023-04-30T14:20:56;2.47;;;1.98;;
73850;SDS011;62190;51.548;5.688;2023-04-30T14:23:25;4.80;;;2.60;;
73850;SDS011;62190;51.548;5.688;2023-04-30T14:25:53;3.10;;;2.22;;
73850;SDS011;62190;51.548;5.688;2023-04-30T14:28:21;3.85;;;2.27;;
73850;SDS011;62190;51.548;5.688;2023-04-30T14:30:50;3.05;;;1.90;;
73850;SDS011;62190;51.548;5.688;2023-04-30T14:33:17;3.05;;;2.10;;
73850;SDS011;62190;51.548;5.688;2023-04-30T14:35:44;2.47;;;1.55;;
73850;SDS011;62190;51.548;5.688;2023-04-30T14:38:12;4.42;;;2.05;;
73850;SDS011;62190;51.548;5.688;2023-04-30T14:40:40;3.62;;;1.87;;
73850;SDS011;62190;51.548;5.688;2023-04-30T14:43:09;3.35;;;1.70;;
73850;SDS011;62190;51.548;5.688;2023-04-30T14:45:37;2.58;;;1.70;;
73850;SDS011;62190;51.548;5.688;2023-04-30T14:48:04;4.58;;;2.22;;
73850;SDS011;62190;51.548;5.688;2023-04-30T14:50:32;3.05;;;1.70;;
73850;SDS011;62190;51.548;5.688;2023-04-30T14:52:59;3.75;;;1.95;;
73850;SDS011;62190;51.548;5.688;2023-04-30T14:55:28;2.85;;;1.80;;
73850;SDS011;62190;51.548;5.688;2023-04-30T14:57:55;3.75;;;1.92;;
73850;SDS011;62190;51.548;5.688;2023-04-30T15:00:22;3.47;;;1.67;;
73850;SDS011;62190;51.548;5.688;2023-04-30T15:02:50;3.42;;;1.90;;